createdAt,value
2022-10-28T00:01:17.251Z,88.10
2022-10-28T00:03:48.021Z,88.20
2022-10-28T00:06:19.790Z,88.30
2022-10-28T00:08:47.672Z,88.40
2022-10-28T00:11:21.959Z,88.30
2022-10-28T00:13:50.872Z,88.40
2022-10-28T00:16:25.178Z,88.40
2022-10-28T00:18:54.060Z,88.60
2022-10-28T00:21:29.653Z,88.40
2022-10-28T00:23:57.549Z,88.70
2022-10-28T00:26:38.914Z,88.40
2022-10-28T00:29:09.785Z,88.70
2022-10-28T00:31:38.341Z,88.30
2022-10-28T00:34:09.852Z,88.20
2022-10-28T00:36:40.551Z,88.40
2022-10-28T00:39:17.150Z,88.40
2022-10-28T00:41:48.588Z,88.60
2022-10-28T00:44:49.820Z,88.40
2022-10-28T00:47:55.762Z,88.60
2022-10-28T00:50:53.834Z,88.60
2022-10-28T00:53:31.091Z,88.40
2022-10-28T00:56:01.994Z,88.40
2022-10-28T00:58:30.162Z,88.30
2022-10-28T01:00:57.101Z,88.10
2022-10-28T01:03:24.026Z,88.10
2022-10-28T01:05:52.094Z,88.00
2022-10-28T01:08:19.330Z,88.00
2022-10-28T01:10:57.553Z,87.90
2022-10-28T01:13:48.641Z,88.10
2022-10-28T01:17:03.606Z,88.10
2022-10-28T01:20:17.434Z,88.10
2022-10-28T01:23:12.643Z,88.10
2022-10-28T01:26:23.675Z,87.90
2022-10-28T01:29:08.827Z,88.10
2022-10-28T01:31:50.987Z,88.00
2022-10-28T01:34:42.894Z,87.80
2022-10-28T01:37:31.301Z,88.00
2022-10-28T01:40:29.534Z,87.90
2022-10-28T01:43:10.565Z,88.00
2022-10-28T01:45:49.642Z,87.80
2022-10-28T01:48:25.443Z,87.90
2022-10-28T01:51:27.790Z,87.90
2022-10-28T01:53:58.554Z,88.00
2022-10-28T01:56:33.101Z,87.70
2022-10-28T01:59:03.286Z,87.80
2022-10-28T02:01:31.794Z,87.80
2022-10-28T02:03:59.068Z,87.80
2022-10-28T02:06:32.280Z,87.80
2022-10-28T02:09:19.145Z,88.00
2022-10-28T02:11:56.603Z,88.10
2022-10-28T02:14:38.951Z,87.90
2022-10-28T02:17:54.744Z,88.10
2022-10-28T02:20:51.226Z,88.30
2022-10-28T02:23:50.940Z,88.00
2022-10-28T02:26:40.871Z,88.10
2022-10-28T02:29:43.671Z,88.00
2022-10-28T02:32:19.835Z,88.30
2022-10-28T02:34:52.623Z,88.00
2022-10-28T02:37:29.728Z,88.00
2022-10-28T02:40:03.769Z,88.20
2022-10-28T02:42:37.366Z,88.10
2022-10-28T02:45:21.137Z,88.20
2022-10-28T02:48:09.150Z,88.40
2022-10-28T02:50:42.126Z,88.40
2022-10-28T02:53:28.753Z,88.30
2022-10-28T02:56:00.152Z,88.40
2022-10-28T02:58:27.348Z,88.30
2022-10-28T03:00:54.154Z,88.20
2022-10-28T03:03:21.070Z,88.30
2022-10-28T03:05:47.773Z,88.30
2022-10-28T03:08:14.561Z,88.40
2022-10-28T03:10:41.364Z,88.50
2022-10-28T03:13:08.098Z,88.40
2022-10-28T03:15:34.855Z,88.40
2022-10-28T03:18:01.615Z,88.40
2022-10-28T03:20:28.337Z,88.50
2022-10-28T03:22:55.454Z,88.50
2022-10-28T03:25:22.459Z,88.50
2022-10-28T03:27:49.204Z,88.50
2022-10-28T03:30:18.406Z,88.50
2022-10-28T03:32:45.173Z,88.60
2022-10-28T03:35:12.320Z,88.60
2022-10-28T03:37:43.707Z,88.60
2022-10-28T03:40:12.133Z,88.80
2022-10-28T03:42:41.820Z,88.70
2022-10-28T03:45:10.640Z,88.90
2022-10-28T03:47:37.646Z,88.90
2022-10-28T03:50:04.676Z,88.80
2022-10-28T03:52:32.240Z,88.90
2022-10-28T03:54:59.069Z,89.00
2022-10-28T03:57:25.799Z,89.10
2022-10-28T03:59:52.517Z,89.20
2022-10-28T04:02:19.603Z,89.20
2022-10-28T04:04:46.377Z,89.30
2022-10-28T04:07:13.881Z,89.30
2022-10-28T04:09:42.671Z,89.40
2022-10-28T04:12:11.154Z,89.30
2022-10-28T04:14:38.094Z,89.50
2022-10-28T04:17:04.818Z,89.30
2022-10-28T04:19:31.558Z,89.40
2022-10-28T04:21:58.287Z,89.40
2022-10-28T04:24:25.007Z,89.50
2022-10-28T04:26:51.799Z,89.40
2022-10-28T04:29:19.341Z,89.50
2022-10-28T04:31:48.677Z,89.40
2022-10-28T04:34:18.223Z,89.50
2022-10-28T04:36:45.043Z,89.50
2022-10-28T04:39:11.881Z,89.50
2022-10-28T04:41:38.640Z,89.60
2022-10-28T04:44:05.478Z,89.60
2022-10-28T04:46:32.175Z,89.70
2022-10-28T04:48:59.113Z,89.70
2022-10-28T04:51:25.883Z,89.80
2022-10-28T04:53:52.613Z,89.70
2022-10-28T04:56:19.375Z,89.80
2022-10-28T04:58:49.073Z,89.80
2022-10-28T05:01:16.074Z,89.90
2022-10-28T05:03:42.898Z,89.80
2022-10-28T05:06:09.722Z,89.90
2022-10-28T05:08:36.437Z,89.90
2022-10-28T05:11:03.196Z,89.80
2022-10-28T05:13:29.975Z,89.80
2022-10-28T05:15:56.691Z,89.90
2022-10-28T05:18:23.405Z,89.90
2022-10-28T05:20:54.706Z,89.80
2022-10-28T05:23:25.803Z,89.80
2022-10-28T05:25:55.394Z,89.90
2022-10-28T05:28:22.180Z,90.10
2022-10-28T05:30:48.898Z,89.50
2022-10-28T05:33:15.614Z,89.60
2022-10-28T05:35:42.586Z,89.60
2022-10-28T05:38:09.501Z,89.80
2022-10-28T05:40:36.578Z,89.80
2022-10-28T05:43:03.959Z,90.00
2022-10-28T05:45:30.767Z,90.00
2022-10-28T05:47:58.216Z,90.00
2022-10-28T05:50:25.085Z,90.00
2022-10-28T05:52:55.043Z,90.00
2022-10-28T05:55:25.104Z,90.10
2022-10-28T05:57:53.080Z,90.10
2022-10-28T06:00:23.852Z,90.10
2022-10-28T06:02:51.530Z,90.20
2022-10-28T06:05:18.569Z,90.20
2022-10-28T06:07:45.343Z,90.20
2022-10-28T06:10:12.342Z,90.20
2022-10-28T06:12:37.986Z,90.30
2022-10-28T06:15:05.572Z,90.30
2022-10-28T06:17:32.435Z,90.30
2022-10-28T06:19:59.272Z,90.30
2022-10-28T06:22:26.039Z,90.30
2022-10-28T06:24:52.824Z,90.30
2022-10-28T06:27:19.570Z,90.30
2022-10-28T06:29:46.308Z,90.30
2022-10-28T06:32:13.279Z,90.30
2022-10-28T06:34:40.055Z,90.30
2022-10-28T06:37:06.835Z,90.20
2022-10-28T06:39:33.598Z,90.20
2022-10-28T06:42:00.303Z,90.20
2022-10-28T06:44:27.106Z,90.20
2022-10-28T06:46:55.775Z,90.10
2022-10-28T06:49:22.649Z,90.10
2022-10-28T06:51:49.997Z,90.10
2022-10-28T06:54:16.770Z,90.10
2022-10-28T06:56:45.215Z,90.10
2022-10-28T06:59:12.052Z,90.10
2022-10-28T07:01:38.852Z,90.40
2022-10-28T07:04:07.049Z,90.00
2022-10-28T07:06:33.810Z,90.00
2022-10-28T07:09:01.125Z,90.00
2022-10-28T07:11:28.043Z,90.00
2022-10-28T07:13:54.985Z,90.00
2022-10-28T07:16:21.782Z,90.00
2022-10-28T07:18:48.585Z,90.00
2022-10-28T07:21:15.392Z,90.00
2022-10-28T07:23:42.125Z,90.00
2022-10-28T07:26:08.908Z,89.90
2022-10-28T07:28:35.814Z,89.80
2022-10-28T07:31:04.245Z,89.80
2022-10-28T07:33:31.035Z,90.20
2022-10-28T07:35:57.947Z,89.70
2022-10-28T07:38:24.651Z,89.60
2022-10-28T07:40:51.415Z,89.60
2022-10-28T07:43:18.126Z,89.60
2022-10-28T07:45:45.112Z,89.60
2022-10-28T07:48:11.841Z,89.50
2022-10-28T07:50:41.416Z,89.40
2022-10-28T07:53:08.299Z,89.30
2022-10-28T07:55:35.125Z,89.20
2022-10-28T07:58:01.886Z,89.10
2022-10-28T08:00:28.684Z,88.90
2022-10-28T08:02:55.442Z,88.80
2022-10-28T08:05:22.244Z,88.70
2022-10-28T08:07:49.001Z,88.60
2022-10-28T08:10:15.908Z,88.40
2022-10-28T08:12:42.943Z,88.30
2022-10-28T08:15:11.165Z,88.20
2022-10-28T08:17:37.862Z,88.20
2022-10-28T08:20:06.400Z,88.00
2022-10-28T08:22:33.112Z,87.70
2022-10-28T08:24:59.845Z,87.60
2022-10-28T08:27:26.592Z,87.50
2022-10-28T08:29:54.074Z,87.40
2022-10-28T08:32:20.806Z,87.20
2022-10-28T08:34:47.563Z,87.00
2022-10-28T08:37:16.264Z,86.90
2022-10-28T08:39:43.155Z,86.60
2022-10-28T08:42:40.364Z,86.40
2022-10-28T08:45:22.444Z,85.60
2022-10-28T08:48:07.853Z,85.50
2022-10-28T08:50:53.053Z,85.70
2022-10-28T08:53:27.369Z,84.80
2022-10-28T08:56:07.664Z,84.70
2022-10-28T08:58:39.066Z,84.30
2022-10-28T09:01:13.052Z,84.20
2022-10-28T09:03:45.196Z,83.90
2022-10-28T09:06:12.184Z,83.60
2022-10-28T09:08:48.038Z,83.70
2022-10-28T09:11:51.272Z,83.10
2022-10-28T09:14:29.648Z,82.50
2022-10-28T09:17:20.353Z,83.30
2022-10-28T09:19:59.849Z,82.70
2022-10-28T09:22:56.618Z,83.00
2022-10-28T09:25:38.474Z,82.10
2022-10-28T09:28:57.869Z,82.70
2022-10-28T09:31:42.284Z,81.60
2022-10-28T09:34:30.648Z,81.70
2022-10-28T09:37:24.133Z,81.60
2022-10-28T09:40:00.136Z,81.60
2022-10-28T09:42:41.698Z,81.80
2022-10-28T09:45:25.726Z,81.50
2022-10-28T09:48:03.066Z,81.20
2022-10-28T09:50:32.681Z,81.40
2022-10-28T09:53:39.080Z,81.50
2022-10-28T09:58:35.769Z,81.70
2022-10-28T10:01:04.988Z,81.60
2022-10-28T10:03:32.530Z,81.50
2022-10-28T10:06:25.881Z,81.50
2022-10-28T10:08:56.163Z,81.70
2022-10-28T10:11:38.717Z,81.30
2022-10-28T10:14:11.968Z,80.50
2022-10-28T10:16:54.089Z,80.80
2022-10-28T10:19:20.915Z,80.00
2022-10-28T10:21:55.896Z,80.60
2022-10-28T10:24:35.248Z,80.30
2022-10-28T10:27:11.071Z,79.50
2022-10-28T10:29:45.324Z,79.40
2022-10-28T10:32:32.101Z,79.90
2022-10-28T10:35:19.060Z,79.00
2022-10-28T10:37:47.903Z,79.40
2022-10-28T10:40:32.510Z,78.90
2022-10-28T10:43:17.963Z,78.10
2022-10-28T10:46:03.591Z,77.40
2022-10-28T10:48:36.255Z,77.10
2022-10-28T10:51:27.493Z,77.70
2022-10-28T10:54:00.920Z,76.50
2022-10-28T10:56:33.330Z,76.70
2022-10-28T10:59:05.615Z,76.40
2022-10-28T11:01:38.966Z,76.50
2022-10-28T11:04:14.972Z,76.00
2022-10-28T11:06:44.357Z,76.20
2022-10-28T11:09:36.283Z,75.80
2022-10-28T11:12:36.296Z,75.60
2022-10-28T11:15:22.642Z,74.50
2022-10-28T11:18:20.729Z,75.00
2022-10-28T11:21:19.533Z,73.80
2022-10-28T11:24:33.353Z,74.00
2022-10-28T11:27:26.444Z,73.40
2022-10-28T11:29:53.334Z,73.40
2022-10-28T11:33:29.018Z,74.40
2022-10-28T11:36:31.798Z,73.00
2022-10-28T11:39:18.161Z,73.40
2022-10-28T11:42:16.028Z,72.80
2022-10-28T11:44:56.091Z,73.40
2022-10-28T11:48:05.648Z,72.20
2022-10-28T11:50:59.833Z,71.80
2022-10-28T11:53:41.979Z,71.60
2022-10-28T11:56:39.654Z,72.40
2022-10-28T12:00:00.535Z,71.80
2022-10-28T12:03:08.166Z,70.90
2022-10-28T12:05:52.405Z,70.60
2022-10-28T12:09:08.993Z,70.90
2022-10-28T12:12:08.116Z,69.90
2022-10-28T12:14:56.982Z,69.90
2022-10-28T12:17:40.600Z,69.80
2022-10-28T12:20:39.416Z,70.30
2022-10-28T12:23:15.135Z,69.40
2022-10-28T12:25:47.453Z,69.70
2022-10-28T12:28:45.373Z,69.70
2022-10-28T12:31:34.980Z,69.10
2022-10-28T12:34:09.404Z,68.20
2022-10-28T12:36:57.464Z,68.50
2022-10-28T12:39:38.438Z,67.20
2022-10-28T12:42:16.668Z,67.40
2022-10-28T12:44:45.924Z,67.30
2022-10-28T12:47:27.643Z,67.80
2022-10-28T12:50:28.093Z,66.60
2022-10-28T12:53:01.864Z,65.90
2022-10-28T12:55:46.922Z,66.60
2022-10-28T12:58:28.765Z,65.80
2022-10-28T13:01:19.221Z,65.70
2022-10-28T13:03:46.118Z,65.70
2022-10-28T13:06:53.264Z,66.60
2022-10-28T13:10:01.414Z,66.00
2022-10-28T13:12:44.751Z,65.50
2022-10-28T13:15:46.693Z,64.90
2022-10-28T13:19:03.548Z,64.90
2022-10-28T13:22:32.948Z,64.80
2022-10-28T13:25:42.774Z,64.80
2022-10-28T13:28:19.313Z,64.70
2022-10-28T13:30:59.079Z,65.50
2022-10-28T13:33:29.185Z,65.10
2022-10-28T13:36:27.211Z,65.60
2022-10-28T13:38:59.966Z,64.60
2022-10-28T13:41:35.250Z,65.30
2022-10-28T13:44:10.970Z,65.30
2022-10-28T13:46:59.491Z,64.90
2022-10-28T13:49:29.913Z,64.60
2022-10-28T13:52:07.998Z,65.50
2022-10-28T13:54:43.837Z,64.90
2022-10-28T13:57:30.077Z,64.80
2022-10-28T14:00:07.358Z,64.50
2022-10-28T14:02:48.028Z,65.00
2022-10-28T14:05:19.128Z,64.80
2022-10-28T14:08:00.161Z,65.20
2022-10-28T14:10:39.776Z,64.60
2022-10-28T14:13:20.734Z,64.60
2022-10-28T14:15:49.898Z,64.70
2022-10-28T14:21:06.367Z,65.20
2022-10-28T14:23:33.003Z,65.30
2022-10-28T14:26:05.791Z,65.20
2022-10-28T14:28:32.467Z,64.80
2022-10-28T14:31:08.261Z,65.10
2022-10-28T14:33:47.822Z,64.50
2022-10-28T14:36:17.295Z,65.00
2022-10-28T14:39:23.280Z,64.90
2022-10-28T14:42:27.241Z,64.40
2022-10-28T14:45:27.630Z,65.10
2022-10-28T14:48:44.445Z,64.70
2022-10-28T14:51:17.222Z,64.80
2022-10-28T14:53:46.382Z,65.30
2022-10-28T14:58:52.549Z,65.40
2022-10-28T15:01:54.604Z,65.70
2022-10-28T15:04:22.049Z,65.30
2022-10-28T15:06:51.560Z,65.70
2022-10-28T15:09:21.651Z,65.60
2022-10-28T15:12:04.740Z,65.70
2022-10-28T15:14:37.888Z,65.70
2022-10-28T15:17:26.561Z,65.90
2022-10-28T15:19:59.633Z,65.80
2022-10-28T15:22:30.791Z,66.00
2022-10-28T15:25:04.526Z,66.20
2022-10-28T15:27:38.878Z,66.10
2022-10-28T15:30:18.961Z,66.30
2022-10-28T15:32:45.719Z,66.30
2022-10-28T15:35:31.054Z,66.60
2022-10-28T15:38:01.355Z,66.50
2022-10-28T15:40:32.618Z,66.80
2022-10-28T15:43:03.061Z,66.90
2022-10-28T15:45:36.079Z,67.10
2022-10-28T15:48:14.488Z,67.20
2022-10-28T15:50:41.610Z,67.30
2022-10-28T15:53:11.070Z,67.50
2022-10-28T15:56:07.082Z,67.60
2022-10-28T15:58:33.641Z,67.70
2022-10-28T16:01:00.561Z,67.90
2022-10-28T16:03:40.700Z,67.90
2022-10-28T16:06:33.586Z,68.20
2022-10-28T16:09:29.095Z,68.30
2022-10-28T16:12:01.621Z,68.50
2022-10-28T16:14:38.140Z,68.60
2022-10-28T16:17:20.051Z,68.70
2022-10-28T16:19:59.027Z,69.00
2022-10-28T16:22:28.869Z,69.20
2022-10-28T16:24:56.285Z,69.20
2022-10-28T16:27:31.118Z,69.30
2022-10-28T16:29:58.176Z,69.40
2022-10-28T16:32:40.737Z,69.60
2022-10-28T16:35:21.253Z,69.90
2022-10-28T16:37:54.617Z,69.80
2022-10-28T16:40:51.078Z,70.00
2022-10-28T16:43:19.895Z,70.10
2022-10-28T16:45:48.462Z,70.30
2022-10-28T16:48:17.419Z,70.30
2022-10-28T16:51:13.593Z,70.30
2022-10-28T16:53:42.628Z,70.60
2022-10-28T16:56:13.852Z,70.60
2022-10-28T16:58:42.883Z,71.30
2022-10-28T17:01:11.721Z,70.70
2022-10-28T17:03:38.623Z,70.90
2022-10-28T17:06:05.595Z,70.90
2022-10-28T17:08:57.021Z,71.00
2022-10-28T17:11:19.495Z,71.10
2022-10-28T17:13:46.309Z,71.10
2022-10-28T17:16:13.191Z,71.20
2022-10-28T17:18:40.275Z,71.30
2022-10-28T17:21:06.986Z,71.50
2022-10-28T17:23:33.707Z,71.50
2022-10-28T17:26:02.712Z,71.50
2022-10-28T17:28:29.916Z,71.70
2022-10-28T17:31:05.977Z,71.70
2022-10-28T17:33:33.893Z,71.90
2022-10-28T17:36:02.626Z,71.90
2022-10-28T17:38:30.605Z,72.00
2022-10-28T17:40:58.134Z,72.00
2022-10-28T17:43:25.279Z,72.10
2022-10-28T17:45:52.133Z,72.10
2022-10-28T17:48:18.853Z,72.20
2022-10-28T17:50:55.003Z,72.20
2022-10-28T17:53:22.191Z,72.60
2022-10-28T17:55:59.586Z,72.40
2022-10-28T17:58:27.234Z,73.30
2022-10-28T18:01:02.320Z,72.50
2022-10-28T18:03:34.051Z,72.70
2022-10-28T18:06:07.217Z,72.70
2022-10-28T18:08:37.199Z,72.70
2022-10-28T18:11:06.116Z,72.80
2022-10-28T18:13:36.045Z,73.00
2022-10-28T18:16:19.889Z,72.90
2022-10-28T18:18:46.804Z,73.20
2022-10-28T18:21:14.568Z,73.00
2022-10-28T18:23:41.887Z,73.10
2022-10-28T18:26:13.942Z,73.20
2022-10-28T18:28:43.307Z,73.40
2022-10-28T18:31:12.709Z,73.50
2022-10-28T18:33:40.062Z,73.60
2022-10-28T18:36:19.859Z,73.60
2022-10-28T18:38:48.420Z,73.80
2022-10-28T18:41:21.714Z,73.70
2022-10-28T18:43:52.906Z,73.90
2022-10-28T18:46:19.996Z,73.90
2022-10-28T18:48:46.913Z,74.00
2022-10-28T18:51:14.249Z,74.10
2022-10-28T18:53:44.911Z,74.20
2022-10-28T18:56:21.742Z,74.20
2022-10-28T18:58:52.304Z,74.50
2022-10-28T19:01:28.300Z,74.30
2022-10-28T19:03:58.488Z,74.70
2022-10-28T19:06:32.546Z,74.60
2022-10-28T19:09:03.111Z,74.70
2022-10-28T19:11:32.104Z,74.70
2022-10-28T19:14:01.996Z,74.80
2022-10-28T19:16:30.568Z,74.80
2022-10-28T19:18:59.173Z,74.90
2022-10-28T19:21:27.799Z,75.00
2022-10-28T19:23:55.003Z,75.00
2022-10-28T19:26:23.026Z,75.10
2022-10-28T19:28:51.454Z,75.30
2022-10-28T19:31:21.948Z,75.30
2022-10-28T19:33:48.763Z,75.40
2022-10-28T19:36:18.988Z,75.40
2022-10-28T19:38:48.111Z,75.60
2022-10-28T19:41:21.679Z,75.60
2022-10-28T19:43:49.755Z,75.70
2022-10-28T19:46:21.011Z,75.70
2022-10-28T19:48:53.579Z,75.70
2022-10-28T19:51:27.301Z,75.90
2022-10-28T19:54:02.522Z,75.90
2022-10-28T19:56:31.547Z,76.10
2022-10-28T19:59:01.384Z,75.70
2022-10-28T20:01:35.297Z,75.80
2022-10-28T20:04:02.765Z,76.10
2022-10-28T20:06:38.877Z,76.00
2022-10-28T20:09:06.820Z,76.30
2022-10-28T20:11:37.661Z,76.20
2022-10-28T20:14:11.630Z,76.30
2022-10-28T20:16:42.430Z,76.40
2022-10-28T20:19:09.721Z,76.40
2022-10-28T20:21:37.577Z,76.50
2022-10-28T20:24:07.800Z,76.50
2022-10-28T20:26:37.182Z,76.60
2022-10-28T20:29:06.924Z,76.70
2022-10-28T20:31:34.192Z,76.70
2022-10-28T20:34:03.942Z,76.70
2022-10-28T20:36:44.133Z,76.90
2022-10-28T20:39:15.682Z,76.90
2022-10-28T20:41:45.711Z,77.00
2022-10-28T20:44:12.900Z,77.00
2022-10-28T20:46:40.451Z,77.00
2022-10-28T20:49:08.697Z,77.10
2022-10-28T20:51:36.114Z,77.10
2022-10-28T20:54:03.316Z,77.10
2022-10-28T20:56:36.403Z,77.20
2022-10-28T20:59:04.029Z,77.30
2022-10-28T21:01:40.363Z,77.20
2022-10-28T21:04:10.593Z,77.40
2022-10-28T21:06:38.881Z,77.30
2022-10-28T21:09:06.229Z,77.30
2022-10-28T21:11:33.380Z,77.30
2022-10-28T21:14:01.577Z,77.40
2022-10-28T21:16:29.632Z,77.40
2022-10-28T21:18:56.483Z,77.40
2022-10-28T21:21:24.229Z,77.40
2022-10-28T21:23:51.617Z,77.50
2022-10-28T21:26:18.878Z,77.50
2022-10-28T21:28:52.677Z,77.50
2022-10-28T21:31:20.928Z,77.50
2022-10-28T21:36:22.175Z,77.30
2022-10-28T21:38:52.806Z,77.40
2022-10-28T21:41:21.602Z,77.30
2022-10-28T21:43:51.972Z,77.50
2022-10-28T21:46:21.336Z,77.00
2022-10-28T21:48:48.645Z,77.50
2022-10-28T21:51:17.055Z,77.50
2022-10-28T21:53:45.319Z,77.50
2022-10-28T21:56:19.333Z,78.30
2022-10-28T21:58:49.250Z,77.50
2022-10-28T22:01:23.628Z,77.50
2022-10-28T22:03:52.247Z,77.60
2022-10-28T22:06:19.023Z,77.50
2022-10-28T22:08:46.861Z,77.40
2022-10-28T22:11:20.004Z,77.50
2022-10-28T22:13:48.807Z,77.50
2022-10-28T22:16:17.812Z,77.40
2022-10-28T22:18:45.664Z,77.40
2022-10-28T22:21:18.607Z,77.50
2022-10-28T22:23:45.849Z,77.40
2022-10-28T22:26:22.729Z,77.40
2022-10-28T22:28:50.865Z,77.40
2022-10-28T22:31:21.541Z,77.40
2022-10-28T22:33:48.831Z,77.40
2022-10-28T22:36:22.654Z,77.30
2022-10-28T22:38:50.235Z,77.20
2022-10-28T22:41:39.460Z,77.30
2022-10-28T22:44:07.385Z,77.10
2022-10-28T22:46:36.536Z,77.10
2022-10-28T22:49:04.223Z,77.10
2022-10-28T22:51:32.016Z,77.10
2022-10-28T22:53:58.957Z,77.00
2022-10-28T22:56:27.400Z,76.90
2022-10-28T22:59:02.085Z,76.90
2022-10-28T23:01:29.751Z,76.90
2022-10-28T23:03:56.749Z,76.80
2022-10-28T23:06:26.666Z,76.80
2022-10-28T23:08:54.516Z,76.80
2022-10-28T23:11:22.844Z,76.80
2022-10-28T23:13:54.480Z,76.70
2022-10-28T23:16:23.012Z,76.70
2022-10-28T23:18:50.294Z,76.70
2022-10-28T23:21:20.663Z,76.60
2022-10-28T23:23:53.938Z,76.50
2022-10-28T23:26:21.410Z,76.50
2022-10-28T23:28:52.684Z,76.50
2022-10-28T23:31:20.487Z,76.30
2022-10-28T23:33:47.634Z,76.30
2022-10-28T23:36:16.200Z,76.20
2022-10-28T23:38:43.055Z,76.20
2022-10-28T23:41:15.701Z,76.10
2022-10-28T23:43:42.906Z,76.10
2022-10-28T23:46:10.237Z,75.90
2022-10-28T23:48:37.337Z,75.90
2022-10-28T23:51:04.375Z,75.80
2022-10-28T23:53:31.505Z,75.80
2022-10-28T23:55:59.257Z,75.70
2022-10-28T23:58:26.081Z,75.70
